sensor_id;sensor_type;location;lat;lon;timestamp;P1;durP1;ratioP1;P2;durP2;ratioP2
173;SDS011;75;48.784;9.364;2023-04-06T00:01:33;35.70;;;21.73;;
173;SDS011;75;48.784;9.364;2023-04-06T00:04:18;42.80;;;22.60;;
173;SDS011;75;48.784;9.364;2023-04-06T00:07:03;57.53;;;26.53;;
173;SDS011;75;48.784;9.364;2023-04-06T00:09:48;41.07;;;23.67;;
173;SDS011;75;48.784;9.364;2023-04-06T00:12:33;37.13;;;22.17;;
173;SDS011;75;48.784;9.364;2023-04-06T00:15:17;32.20;;;21.03;;
173;SDS011;75;48.784;9.364;2023-04-06T00:18:02;32.37;;;20.37;;
173;SDS011;75;48.784;9.364;2023-04-06T00:20:47;35.40;;;22.10;;
173;SDS011;75;48.784;9.364;2023-04-06T00:23:31;41.73;;;24.30;;
173;SDS011;75;48.784;9.364;2023-04-06T00:26:15;40.90;;;22.40;;
173;SDS011;75;48.784;9.364;2023-04-06T00:29:00;39.77;;;23.63;;
173;SDS011;75;48.784;9.364;2023-04-06T00:31:44;37.57;;;22.60;;
173;SDS011;75;48.784;9.364;2023-04-06T00:34:29;36.03;;;22.20;;
173;SDS011;75;48.784;9.364;2023-04-06T00:37:13;35.53;;;20.10;;
173;SDS011;75;48.784;9.364;2023-04-06T00:39:58;32.03;;;20.20;;
173;SDS011;75;48.784;9.364;2023-04-06T00:42:42;31.53;;;21.57;;
173;SDS011;75;48.784;9.364;2023-04-06T00:45:27;34.70;;;22.93;;
173;SDS011;75;48.784;9.364;2023-04-06T00:48:12;37.83;;;24.17;;
173;SDS011;75;48.784;9.364;2023-04-06T00:50:57;39.80;;;25.10;;
173;SDS011;75;48.784;9.364;2023-04-06T00:53:42;34.73;;;22.27;;
173;SDS011;75;48.784;9.364;2023-04-06T00:56:26;35.17;;;22.70;;
173;SDS011;75;48.784;9.364;2023-04-06T00:59:11;37.23;;;23.17;;
173;SDS011;75;48.784;9.364;2023-04-06T01:01:56;35.10;;;23.67;;
173;SDS011;75;48.784;9.364;2023-04-06T01:04:41;35.00;;;24.97;;
173;SDS011;75;48.784;9.364;2023-04-06T01:07:25;36.23;;;22.47;;
173;SDS011;75;48.784;9.364;2023-04-06T01:10:10;34.03;;;22.50;;
173;SDS011;75;48.784;9.364;2023-04-06T01:12:54;34.90;;;21.90;;
173;SDS011;75;48.784;9.364;2023-04-06T01:15:39;32.60;;;20.90;;
173;SDS011;75;48.784;9.364;2023-04-06T01:18:25;32.10;;;21.40;;
173;SDS011;75;48.784;9.364;2023-04-06T01:21:10;30.83;;;20.30;;
173;SDS011;75;48.784;9.364;2023-04-06T01:23:59;29.70;;;19.77;;
173;SDS011;75;48.784;9.364;2023-04-06T01:26:44;37.40;;;21.97;;
173;SDS011;75;48.784;9.364;2023-04-06T01:29:29;33.33;;;21.47;;
173;SDS011;75;48.784;9.364;2023-04-06T01:32:13;33.30;;;21.60;;
173;SDS011;75;48.784;9.364;2023-04-06T01:34:57;29.83;;;20.43;;
173;SDS011;75;48.784;9.364;2023-04-06T01:37:42;30.53;;;20.47;;
173;SDS011;75;48.784;9.364;2023-04-06T01:40:27;32.17;;;21.57;;
173;SDS011;75;48.784;9.364;2023-04-06T01:43:11;32.37;;;21.03;;
173;SDS011;75;48.784;9.364;2023-04-06T01:45:55;33.60;;;22.10;;
173;SDS011;75;48.784;9.364;2023-04-06T01:48:40;30.80;;;20.27;;
173;SDS011;75;48.784;9.364;2023-04-06T01:51:25;34.43;;;21.37;;
173;SDS011;75;48.784;9.364;2023-04-06T01:54:11;34.83;;;22.43;;
173;SDS011;75;48.784;9.364;2023-04-06T01:56:55;35.53;;;22.97;;
173;SDS011;75;48.784;9.364;2023-04-06T01:59:40;34.30;;;21.47;;
173;SDS011;75;48.784;9.364;2023-04-06T02:02:24;35.33;;;21.67;;
173;SDS011;75;48.784;9.364;2023-04-06T02:05:09;33.17;;;21.93;;
173;SDS011;75;48.784;9.364;2023-04-06T02:07:53;33.30;;;22.13;;
173;SDS011;75;48.784;9.364;2023-04-06T02:10:38;34.70;;;23.00;;
173;SDS011;75;48.784;9.364;2023-04-06T02:13:22;32.20;;;21.80;;
173;SDS011;75;48.784;9.364;2023-04-06T02:16:07;36.00;;;22.47;;
173;SDS011;75;48.784;9.364;2023-04-06T02:18:52;33.83;;;23.40;;
173;SDS011;75;48.784;9.364;2023-04-06T02:21:36;37.50;;;22.33;;
173;SDS011;75;48.784;9.364;2023-04-06T02:24:21;37.53;;;22.43;;
173;SDS011;75;48.784;9.364;2023-04-06T02:27:05;34.20;;;23.10;;
173;SDS011;75;48.784;9.364;2023-04-06T02:29:49;37.53;;;23.63;;
173;SDS011;75;48.784;9.364;2023-04-06T02:32:34;35.03;;;22.73;;
173;SDS011;75;48.784;9.364;2023-04-06T02:35:19;37.70;;;25.17;;
173;SDS011;75;48.784;9.364;2023-04-06T02:38:04;40.00;;;26.30;;
173;SDS011;75;48.784;9.364;2023-04-06T02:40:48;38.63;;;23.43;;
173;SDS011;75;48.784;9.364;2023-04-06T02:43:32;38.87;;;24.97;;
173;SDS011;75;48.784;9.364;2023-04-06T02:46:17;33.93;;;23.43;;
173;SDS011;75;48.784;9.364;2023-04-06T02:49:01;42.70;;;26.50;;
173;SDS011;75;48.784;9.364;2023-04-06T02:51:46;41.23;;;26.50;;
173;SDS011;75;48.784;9.364;2023-04-06T02:54:31;40.70;;;26.50;;
173;SDS011;75;48.784;9.364;2023-04-06T02:57:15;39.90;;;25.63;;
173;SDS011;75;48.784;9.364;2023-04-06T03:00:00;36.67;;;24.23;;
173;SDS011;75;48.784;9.364;2023-04-06T03:02:44;38.80;;;23.63;;
173;SDS011;75;48.784;9.364;2023-04-06T03:05:29;38.57;;;24.90;;
173;SDS011;75;48.784;9.364;2023-04-06T03:08:14;36.03;;;23.43;;
173;SDS011;75;48.784;9.364;2023-04-06T03:10:59;41.07;;;25.37;;
173;SDS011;75;48.784;9.364;2023-04-06T03:13:44;37.90;;;21.63;;
173;SDS011;75;48.784;9.364;2023-04-06T03:16:29;39.27;;;25.80;;
173;SDS011;75;48.784;9.364;2023-04-06T03:19:13;40.87;;;24.77;;
173;SDS011;75;48.784;9.364;2023-04-06T03:21:58;41.73;;;26.33;;
173;SDS011;75;48.784;9.364;2023-04-06T03:24:43;36.20;;;24.50;;
173;SDS011;75;48.784;9.364;2023-04-06T03:27:27;37.00;;;23.80;;
173;SDS011;75;48.784;9.364;2023-04-06T03:30:12;41.40;;;23.30;;
173;SDS011;75;48.784;9.364;2023-04-06T03:32:56;35.37;;;24.03;;
173;SDS011;75;48.784;9.364;2023-04-06T03:35:41;38.00;;;24.10;;
173;SDS011;75;48.784;9.364;2023-04-06T03:38:25;40.67;;;24.40;;
173;SDS011;75;48.784;9.364;2023-04-06T03:41:10;36.83;;;23.33;;
173;SDS011;75;48.784;9.364;2023-04-06T03:43:54;37.50;;;22.40;;
173;SDS011;75;48.784;9.364;2023-04-06T03:46:39;33.97;;;22.00;;
173;SDS011;75;48.784;9.364;2023-04-06T03:49:23;33.07;;;22.20;;
173;SDS011;75;48.784;9.364;2023-04-06T03:52:08;38.50;;;23.37;;
173;SDS011;75;48.784;9.364;2023-04-06T03:54:53;33.33;;;21.43;;
173;SDS011;75;48.784;9.364;2023-04-06T03:57:37;33.63;;;22.57;;
173;SDS011;75;48.784;9.364;2023-04-06T04:00:22;32.10;;;21.60;;
173;SDS011;75;48.784;9.364;2023-04-06T04:03:07;37.83;;;23.17;;
173;SDS011;75;48.784;9.364;2023-04-06T04:05:51;38.50;;;22.97;;
173;SDS011;75;48.784;9.364;2023-04-06T04:08:36;33.53;;;21.13;;
173;SDS011;75;48.784;9.364;2023-04-06T04:11:20;38.70;;;21.17;;
173;SDS011;75;48.784;9.364;2023-04-06T04:14:05;38.47;;;21.90;;
173;SDS011;75;48.784;9.364;2023-04-06T04:16:49;33.30;;;22.03;;
173;SDS011;75;48.784;9.364;2023-04-06T04:19:33;36.80;;;22.50;;
173;SDS011;75;48.784;9.364;2023-04-06T04:22:19;31.57;;;21.60;;
173;SDS011;75;48.784;9.364;2023-04-06T04:25:03;35.43;;;22.00;;
173;SDS011;75;48.784;9.364;2023-04-06T04:27:48;36.03;;;23.90;;
173;SDS011;75;48.784;9.364;2023-04-06T04:30:33;36.07;;;23.57;;
173;SDS011;75;48.784;9.364;2023-04-06T04:33:18;36.23;;;22.40;;
173;SDS011;75;48.784;9.364;2023-04-06T04:36:03;34.37;;;22.27;;
173;SDS011;75;48.784;9.364;2023-04-06T04:38:47;34.93;;;21.77;;
173;SDS011;75;48.784;9.364;2023-04-06T04:41:32;36.40;;;22.00;;
173;SDS011;75;48.784;9.364;2023-04-06T04:44:17;36.50;;;23.03;;
173;SDS011;75;48.784;9.364;2023-04-06T04:47:01;31.97;;;21.83;;
173;SDS011;75;48.784;9.364;2023-04-06T04:49:46;36.83;;;22.53;;
173;SDS011;75;48.784;9.364;2023-04-06T04:52:30;33.90;;;22.80;;
173;SDS011;75;48.784;9.364;2023-04-06T04:55:15;41.53;;;25.13;;
173;SDS011;75;48.784;9.364;2023-04-06T04:57:59;44.63;;;25.33;;
173;SDS011;75;48.784;9.364;2023-04-06T05:00:44;34.83;;;23.67;;
173;SDS011;75;48.784;9.364;2023-04-06T05:03:29;35.10;;;22.80;;
173;SDS011;75;48.784;9.364;2023-04-06T05:06:13;32.70;;;21.40;;
173;SDS011;75;48.784;9.364;2023-04-06T05:08:58;38.20;;;21.33;;
173;SDS011;75;48.784;9.364;2023-04-06T05:11:42;34.27;;;20.77;;
173;SDS011;75;48.784;9.364;2023-04-06T05:14:27;30.30;;;20.33;;
173;SDS011;75;48.784;9.364;2023-04-06T05:17:11;32.37;;;22.43;;
173;SDS011;75;48.784;9.364;2023-04-06T05:19:56;36.10;;;23.17;;
173;SDS011;75;48.784;9.364;2023-04-06T05:22:41;34.73;;;22.57;;
173;SDS011;75;48.784;9.364;2023-04-06T05:25:25;32.33;;;21.13;;
173;SDS011;75;48.784;9.364;2023-04-06T05:28:10;34.63;;;21.90;;
173;SDS011;75;48.784;9.364;2023-04-06T05:30:57;35.53;;;22.00;;
173;SDS011;75;48.784;9.364;2023-04-06T05:33:42;33.73;;;21.67;;
173;SDS011;75;48.784;9.364;2023-04-06T05:36:26;33.20;;;21.40;;
173;SDS011;75;48.784;9.364;2023-04-06T05:39:11;33.53;;;21.40;;
173;SDS011;75;48.784;9.364;2023-04-06T05:41:56;34.13;;;23.00;;
173;SDS011;75;48.784;9.364;2023-04-06T05:44:40;34.70;;;21.90;;
173;SDS011;75;48.784;9.364;2023-04-06T05:47:25;37.10;;;22.80;;
173;SDS011;75;48.784;9.364;2023-04-06T05:50:15;32.40;;;21.10;;
173;SDS011;75;48.784;9.364;2023-04-06T05:52:59;33.40;;;21.40;;
173;SDS011;75;48.784;9.364;2023-04-06T05:55:44;30.70;;;20.60;;
173;SDS011;75;48.784;9.364;2023-04-06T05:58:28;29.83;;;19.90;;
173;SDS011;75;48.784;9.364;2023-04-06T06:01:13;30.90;;;19.70;;
173;SDS011;75;48.784;9.364;2023-04-06T06:03:59;29.50;;;21.70;;
173;SDS011;75;48.784;9.364;2023-04-06T06:06:44;36.00;;;24.13;;
173;SDS011;75;48.784;9.364;2023-04-06T06:09:29;29.70;;;20.37;;
173;SDS011;75;48.784;9.364;2023-04-06T06:12:13;28.90;;;18.10;;
173;SDS011;75;48.784;9.364;2023-04-06T06:14:58;46.03;;;26.20;;
173;SDS011;75;48.784;9.364;2023-04-06T06:17:42;44.70;;;24.23;;
173;SDS011;75;48.784;9.364;2023-04-06T06:20:27;42.20;;;27.10;;
173;SDS011;75;48.784;9.364;2023-04-06T06:23:11;43.67;;;26.50;;
173;SDS011;75;48.784;9.364;2023-04-06T06:25:56;43.80;;;26.80;;
173;SDS011;75;48.784;9.364;2023-04-06T06:28:41;44.60;;;27.13;;
173;SDS011;75;48.784;9.364;2023-04-06T06:31:26;50.47;;;27.70;;
173;SDS011;75;48.784;9.364;2023-04-06T06:34:10;42.07;;;25.40;;
173;SDS011;75;48.784;9.364;2023-04-06T06:36:56;42.30;;;26.37;;
173;SDS011;75;48.784;9.364;2023-04-06T06:39:41;52.10;;;29.50;;
173;SDS011;75;48.784;9.364;2023-04-06T06:42:25;83.37;;;36.50;;
173;SDS011;75;48.784;9.364;2023-04-06T06:45:10;69.33;;;28.67;;
173;SDS011;75;48.784;9.364;2023-04-06T06:47:54;59.57;;;28.17;;
173;SDS011;75;48.784;9.364;2023-04-06T06:50:39;45.07;;;26.23;;
173;SDS011;75;48.784;9.364;2023-04-06T06:53:23;46.07;;;26.50;;
173;SDS011;75;48.784;9.364;2023-04-06T06:56:08;55.57;;;29.40;;
173;SDS011;75;48.784;9.364;2023-04-06T06:58:53;53.77;;;28.20;;
173;SDS011;75;48.784;9.364;2023-04-06T07:01:37;44.53;;;26.20;;
173;SDS011;75;48.784;9.364;2023-04-06T07:04:22;40.73;;;23.33;;
173;SDS011;75;48.784;9.364;2023-04-06T07:07:06;39.60;;;25.23;;
173;SDS011;75;48.784;9.364;2023-04-06T07:09:51;35.50;;;22.73;;
173;SDS011;75;48.784;9.364;2023-04-06T07:12:36;32.40;;;21.20;;
173;SDS011;75;48.784;9.364;2023-04-06T07:15:20;38.97;;;21.87;;
173;SDS011;75;48.784;9.364;2023-04-06T07:18:05;38.10;;;21.47;;
173;SDS011;75;48.784;9.364;2023-04-06T07:20:50;36.37;;;21.47;;
173;SDS011;75;48.784;9.364;2023-04-06T07:23:34;36.67;;;21.03;;
173;SDS011;75;48.784;9.364;2023-04-06T07:26:18;31.07;;;20.27;;
173;SDS011;75;48.784;9.364;2023-04-06T07:29:04;32.67;;;20.30;;
173;SDS011;75;48.784;9.364;2023-04-06T07:31:48;31.20;;;19.27;;
173;SDS011;75;48.784;9.364;2023-04-06T07:34:33;31.43;;;19.60;;
173;SDS011;75;48.784;9.364;2023-04-06T07:37:18;26.60;;;17.63;;
173;SDS011;75;48.784;9.364;2023-04-06T07:40:03;26.07;;;18.27;;
173;SDS011;75;48.784;9.364;2023-04-06T07:42:47;28.37;;;18.87;;
173;SDS011;75;48.784;9.364;2023-04-06T07:45:32;27.60;;;18.80;;
173;SDS011;75;48.784;9.364;2023-04-06T07:48:17;29.10;;;17.70;;
173;SDS011;75;48.784;9.364;2023-04-06T07:51:02;27.70;;;16.83;;
173;SDS011;75;48.784;9.364;2023-04-06T07:53:46;30.80;;;18.70;;
173;SDS011;75;48.784;9.364;2023-04-06T07:56:31;23.83;;;15.47;;
173;SDS011;75;48.784;9.364;2023-04-06T07:59:15;28.07;;;16.20;;
173;SDS011;75;48.784;9.364;2023-04-06T08:02:00;24.23;;;15.63;;
173;SDS011;75;48.784;9.364;2023-04-06T08:04:44;23.63;;;15.97;;
173;SDS011;75;48.784;9.364;2023-04-06T08:07:29;27.03;;;15.43;;
173;SDS011;75;48.784;9.364;2023-04-06T08:10:13;25.20;;;15.67;;
173;SDS011;75;48.784;9.364;2023-04-06T08:12:58;23.90;;;15.90;;
173;SDS011;75;48.784;9.364;2023-04-06T08:15:43;21.83;;;15.10;;
173;SDS011;75;48.784;9.364;2023-04-06T08:18:27;21.97;;;14.87;;
173;SDS011;75;48.784;9.364;2023-04-06T08:21:13;23.40;;;14.43;;
173;SDS011;75;48.784;9.364;2023-04-06T08:23:58;24.07;;;15.50;;
173;SDS011;75;48.784;9.364;2023-04-06T08:26:42;22.17;;;14.90;;
173;SDS011;75;48.784;9.364;2023-04-06T08:29:27;24.03;;;15.37;;
173;SDS011;75;48.784;9.364;2023-04-06T08:32:12;23.90;;;14.80;;
173;SDS011;75;48.784;9.364;2023-04-06T08:34:56;23.03;;;14.70;;
173;SDS011;75;48.784;9.364;2023-04-06T08:37:41;26.43;;;15.97;;
173;SDS011;75;48.784;9.364;2023-04-06T08:40:26;25.63;;;14.77;;
173;SDS011;75;48.784;9.364;2023-04-06T08:43:13;24.80;;;15.27;;
173;SDS011;75;48.784;9.364;2023-04-06T08:45:58;24.23;;;15.50;;
173;SDS011;75;48.784;9.364;2023-04-06T08:48:42;22.13;;;13.87;;
173;SDS011;75;48.784;9.364;2023-04-06T08:51:27;22.10;;;14.60;;
173;SDS011;75;48.784;9.364;2023-04-06T08:54:12;24.50;;;14.20;;
173;SDS011;75;48.784;9.364;2023-04-06T08:56:57;20.40;;;13.53;;
173;SDS011;75;48.784;9.364;2023-04-06T08:59:42;21.50;;;14.83;;
173;SDS011;75;48.784;9.364;2023-04-06T09:02:27;24.40;;;14.33;;
173;SDS011;75;48.784;9.364;2023-04-06T09:05:11;24.47;;;15.00;;
173;SDS011;75;48.784;9.364;2023-04-06T09:07:56;26.10;;;15.43;;
173;SDS011;75;48.784;9.364;2023-04-06T09:10:41;24.33;;;15.00;;
173;SDS011;75;48.784;9.364;2023-04-06T09:13:25;26.80;;;14.63;;
173;SDS011;75;48.784;9.364;2023-04-06T09:16:10;22.77;;;14.50;;
173;SDS011;75;48.784;9.364;2023-04-06T09:18:54;23.20;;;14.30;;
173;SDS011;75;48.784;9.364;2023-04-06T09:21:47;24.63;;;15.27;;
173;SDS011;75;48.784;9.364;2023-04-06T09:24:39;25.87;;;14.63;;
173;SDS011;75;48.784;9.364;2023-04-06T09:27:34;20.97;;;13.97;;
173;SDS011;75;48.784;9.364;2023-04-06T09:30:18;22.60;;;13.60;;
173;SDS011;75;48.784;9.364;2023-04-06T09:33:03;22.83;;;14.23;;
173;SDS011;75;48.784;9.364;2023-04-06T09:35:50;22.97;;;13.17;;
173;SDS011;75;48.784;9.364;2023-04-06T09:38:38;18.50;;;12.60;;
173;SDS011;75;48.784;9.364;2023-04-06T09:44:09;21.67;;;13.37;;
173;SDS011;75;48.784;9.364;2023-04-06T09:46:53;20.87;;;13.30;;
173;SDS011;75;48.784;9.364;2023-04-06T09:49:39;25.73;;;13.93;;
173;SDS011;75;48.784;9.364;2023-04-06T09:52:24;23.33;;;14.30;;
173;SDS011;75;48.784;9.364;2023-04-06T09:55:10;24.30;;;13.70;;
173;SDS011;75;48.784;9.364;2023-04-06T09:58:04;20.27;;;13.07;;
173;SDS011;75;48.784;9.364;2023-04-06T10:00:56;27.90;;;13.17;;
173;SDS011;75;48.784;9.364;2023-04-06T10:06:28;16.83;;;10.10;;
173;SDS011;75;48.784;9.364;2023-04-06T10:09:16;13.13;;;9.50;;
173;SDS011;75;48.784;9.364;2023-04-06T10:12:04;19.33;;;12.10;;
173;SDS011;75;48.784;9.364;2023-04-06T10:14:49;14.73;;;10.30;;
173;SDS011;75;48.784;9.364;2023-04-06T10:17:34;17.90;;;11.20;;
173;SDS011;75;48.784;9.364;2023-04-06T10:20:29;18.13;;;11.07;;
173;SDS011;75;48.784;9.364;2023-04-06T10:23:20;17.50;;;11.30;;
173;SDS011;75;48.784;9.364;2023-04-06T10:26:12;19.03;;;11.50;;
173;SDS011;75;48.784;9.364;2023-04-06T10:29:01;17.70;;;11.03;;
173;SDS011;75;48.784;9.364;2023-04-06T10:31:48;15.40;;;10.40;;
173;SDS011;75;48.784;9.364;2023-04-06T10:34:36;14.70;;;9.70;;
173;SDS011;75;48.784;9.364;2023-04-06T10:37:20;13.57;;;9.50;;
173;SDS011;75;48.784;9.364;2023-04-06T10:40:05;15.20;;;9.90;;
173;SDS011;75;48.784;9.364;2023-04-06T10:42:51;18.17;;;10.43;;
173;SDS011;75;48.784;9.364;2023-04-06T10:45:36;20.43;;;11.57;;
173;SDS011;75;48.784;9.364;2023-04-06T10:48:21;19.40;;;11.43;;
173;SDS011;75;48.784;9.364;2023-04-06T10:51:09;16.73;;;10.90;;
173;SDS011;75;48.784;9.364;2023-04-06T10:53:54;11.43;;;8.50;;
173;SDS011;75;48.784;9.364;2023-04-06T10:56:39;12.20;;;8.10;;
173;SDS011;75;48.784;9.364;2023-04-06T10:59:23;12.37;;;8.37;;
173;SDS011;75;48.784;9.364;2023-04-06T11:02:08;11.90;;;8.40;;
173;SDS011;75;48.784;9.364;2023-04-06T11:04:53;16.80;;;8.30;;
173;SDS011;75;48.784;9.364;2023-04-06T11:07:39;13.70;;;8.60;;
173;SDS011;75;48.784;9.364;2023-04-06T11:10:24;11.60;;;8.30;;
173;SDS011;75;48.784;9.364;2023-04-06T11:13:08;13.50;;;9.70;;
173;SDS011;75;48.784;9.364;2023-04-06T11:15:53;11.83;;;8.10;;
173;SDS011;75;48.784;9.364;2023-04-06T11:18:37;13.83;;;8.93;;
173;SDS011;75;48.784;9.364;2023-04-06T11:21:43;13.00;;;8.60;;
173;SDS011;75;48.784;9.364;2023-04-06T11:24:30;13.30;;;8.53;;
173;SDS011;75;48.784;9.364;2023-04-06T11:27:15;10.80;;;7.73;;
173;SDS011;75;48.784;9.364;2023-04-06T11:30:00;13.27;;;8.80;;
173;SDS011;75;48.784;9.364;2023-04-06T11:32:45;12.70;;;8.50;;
173;SDS011;75;48.784;9.364;2023-04-06T11:35:30;10.77;;;7.67;;
173;SDS011;75;48.784;9.364;2023-04-06T11:38:17;12.97;;;8.80;;
173;SDS011;75;48.784;9.364;2023-04-06T11:41:03;12.40;;;8.50;;
173;SDS011;75;48.784;9.364;2023-04-06T11:43:48;12.93;;;8.40;;
173;SDS011;75;48.784;9.364;2023-04-06T11:46:32;12.43;;;8.47;;
173;SDS011;75;48.784;9.364;2023-04-06T11:49:17;13.20;;;8.47;;
173;SDS011;75;48.784;9.364;2023-04-06T11:52:02;15.70;;;8.60;;
173;SDS011;75;48.784;9.364;2023-04-06T11:54:47;12.67;;;8.80;;
173;SDS011;75;48.784;9.364;2023-04-06T11:57:32;14.23;;;8.70;;
173;SDS011;75;48.784;9.364;2023-04-06T12:00:17;13.70;;;8.47;;
173;SDS011;75;48.784;9.364;2023-04-06T12:03:01;11.50;;;8.30;;
173;SDS011;75;48.784;9.364;2023-04-06T12:05:46;16.70;;;9.50;;
173;SDS011;75;48.784;9.364;2023-04-06T12:08:30;12.23;;;8.37;;
173;SDS011;75;48.784;9.364;2023-04-06T12:11:15;11.43;;;8.30;;
173;SDS011;75;48.784;9.364;2023-04-06T12:13:59;12.57;;;8.63;;
173;SDS011;75;48.784;9.364;2023-04-06T12:16:45;12.90;;;8.90;;
173;SDS011;75;48.784;9.364;2023-04-06T12:19:29;15.10;;;9.37;;
173;SDS011;75;48.784;9.364;2023-04-06T12:22:14;13.13;;;8.80;;
173;SDS011;75;48.784;9.364;2023-04-06T12:24:58;13.30;;;8.60;;
173;SDS011;75;48.784;9.364;2023-04-06T12:27:43;18.17;;;9.93;;
173;SDS011;75;48.784;9.364;2023-04-06T12:30:28;12.10;;;8.23;;
173;SDS011;75;48.784;9.364;2023-04-06T12:33:13;13.73;;;8.53;;
173;SDS011;75;48.784;9.364;2023-04-06T12:35:58;14.77;;;8.63;;
173;SDS011;75;48.784;9.364;2023-04-06T12:38:42;14.50;;;9.40;;
173;SDS011;75;48.784;9.364;2023-04-06T12:41:29;13.00;;;8.80;;
173;SDS011;75;48.784;9.364;2023-04-06T12:44:13;13.73;;;8.70;;
173;SDS011;75;48.784;9.364;2023-04-06T12:46:58;13.53;;;9.40;;
173;SDS011;75;48.784;9.364;2023-04-06T12:49:43;14.23;;;8.50;;
173;SDS011;75;48.784;9.364;2023-04-06T12:52:28;16.37;;;9.17;;
173;SDS011;75;48.784;9.364;2023-04-06T12:55:14;15.30;;;9.80;;
173;SDS011;75;48.784;9.364;2023-04-06T12:57:59;13.43;;;8.43;;
173;SDS011;75;48.784;9.364;2023-04-06T13:00:44;11.07;;;7.47;;
173;SDS011;75;48.784;9.364;2023-04-06T13:03:29;15.23;;;8.67;;
173;SDS011;75;48.784;9.364;2023-04-06T13:06:14;14.80;;;8.47;;
173;SDS011;75;48.784;9.364;2023-04-06T13:08:58;11.97;;;8.13;;
173;SDS011;75;48.784;9.364;2023-04-06T13:11:43;12.47;;;7.90;;
173;SDS011;75;48.784;9.364;2023-04-06T13:14:29;15.60;;;7.00;;
173;SDS011;75;48.784;9.364;2023-04-06T13:17:14;11.20;;;7.10;;
173;SDS011;75;48.784;9.364;2023-04-06T13:20:00;11.83;;;7.63;;
173;SDS011;75;48.784;9.364;2023-04-06T13:22:45;14.10;;;7.80;;
173;SDS011;75;48.784;9.364;2023-04-06T13:25:29;12.97;;;8.50;;
173;SDS011;75;48.784;9.364;2023-04-06T13:28:15;10.93;;;7.90;;
173;SDS011;75;48.784;9.364;2023-04-06T13:31:01;11.93;;;7.80;;
173;SDS011;75;48.784;9.364;2023-04-06T13:33:46;12.17;;;8.03;;
173;SDS011;75;48.784;9.364;2023-04-06T13:36:30;11.33;;;7.50;;
173;SDS011;75;48.784;9.364;2023-04-06T13:39:15;11.80;;;7.60;;
173;SDS011;75;48.784;9.364;2023-04-06T13:42:00;13.50;;;7.57;;
173;SDS011;75;48.784;9.364;2023-04-06T13:44:44;11.50;;;7.63;;
173;SDS011;75;48.784;9.364;2023-04-06T13:47:30;10.27;;;6.87;;
173;SDS011;75;48.784;9.364;2023-04-06T13:50:15;11.20;;;7.20;;
173;SDS011;75;48.784;9.364;2023-04-06T13:52:59;12.53;;;7.40;;
173;SDS011;75;48.784;9.364;2023-04-06T13:55:51;12.60;;;7.87;;
173;SDS011;75;48.784;9.364;2023-04-06T13:58:36;11.83;;;7.63;;
173;SDS011;75;48.784;9.364;2023-04-06T14:01:20;11.60;;;7.77;;
173;SDS011;75;48.784;9.364;2023-04-06T14:04:05;13.63;;;7.90;;
173;SDS011;75;48.784;9.364;2023-04-06T14:06:49;12.97;;;8.07;;
173;SDS011;75;48.784;9.364;2023-04-06T14:09:34;11.17;;;7.57;;
173;SDS011;75;48.784;9.364;2023-04-06T14:12:19;11.90;;;7.80;;
173;SDS011;75;48.784;9.364;2023-04-06T14:15:04;12.87;;;7.90;;
173;SDS011;75;48.784;9.364;2023-04-06T14:17:49;16.77;;;8.03;;
173;SDS011;75;48.784;9.364;2023-04-06T14:20:34;13.40;;;7.97;;
173;SDS011;75;48.784;9.364;2023-04-06T14:23:18;11.90;;;8.10;;
173;SDS011;75;48.784;9.364;2023-04-06T14:26:04;13.73;;;8.53;;
173;SDS011;75;48.784;9.364;2023-04-06T14:28:49;13.03;;;7.90;;
173;SDS011;75;48.784;9.364;2023-04-06T14:31:35;12.43;;;7.93;;
173;SDS011;75;48.784;9.364;2023-04-06T14:34:20;12.10;;;7.70;;
173;SDS011;75;48.784;9.364;2023-04-06T14:37:05;11.27;;;7.27;;
173;SDS011;75;48.784;9.364;2023-04-06T14:39:49;12.20;;;7.53;;
173;SDS011;75;48.784;9.364;2023-04-06T14:42:35;10.90;;;7.57;;
173;SDS011;75;48.784;9.364;2023-04-06T14:45:20;14.40;;;8.30;;
173;SDS011;75;48.784;9.364;2023-04-06T14:48:06;16.20;;;7.90;;
173;SDS011;75;48.784;9.364;2023-04-06T14:50:54;11.80;;;7.60;;
173;SDS011;75;48.784;9.364;2023-04-06T14:53:39;14.60;;;7.97;;
173;SDS011;75;48.784;9.364;2023-04-06T14:56:23;12.90;;;8.40;;
173;SDS011;75;48.784;9.364;2023-04-06T14:59:08;13.20;;;8.33;;
173;SDS011;75;48.784;9.364;2023-04-06T15:01:52;11.97;;;7.63;;
173;SDS011;75;48.784;9.364;2023-04-06T15:04:38;12.30;;;8.10;;
173;SDS011;75;48.784;9.364;2023-04-06T15:07:23;13.90;;;8.13;;
173;SDS011;75;48.784;9.364;2023-04-06T15:10:07;14.50;;;8.50;;
173;SDS011;75;48.784;9.364;2023-04-06T15:12:52;13.03;;;8.37;;
173;SDS011;75;48.784;9.364;2023-04-06T15:15:37;14.60;;;8.10;;
173;SDS011;75;48.784;9.364;2023-04-06T15:18:21;13.77;;;8.30;;
173;SDS011;75;48.784;9.364;2023-04-06T15:21:06;17.30;;;8.90;;
173;SDS011;75;48.784;9.364;2023-04-06T15:23:50;12.57;;;8.10;;
173;SDS011;75;48.784;9.364;2023-04-06T15:26:35;12.80;;;8.30;;
173;SDS011;75;48.784;9.364;2023-04-06T15:29:20;12.93;;;8.13;;
173;SDS011;75;48.784;9.364;2023-04-06T15:32:05;12.60;;;8.20;;
173;SDS011;75;48.784;9.364;2023-04-06T15:34:49;18.27;;;10.30;;
173;SDS011;75;48.784;9.364;2023-04-06T15:37:34;12.00;;;8.70;;
173;SDS011;75;48.784;9.364;2023-04-06T15:40:20;14.33;;;8.67;;
173;SDS011;75;48.784;9.364;2023-04-06T15:43:04;13.00;;;8.33;;
173;SDS011;75;48.784;9.364;2023-04-06T15:45:49;23.57;;;12.70;;
173;SDS011;75;48.784;9.364;2023-04-06T15:48:33;54.47;;;26.67;;
173;SDS011;75;48.784;9.364;2023-04-06T15:51:18;14.40;;;8.40;;
173;SDS011;75;48.784;9.364;2023-04-06T15:54:02;12.63;;;7.60;;
173;SDS011;75;48.784;9.364;2023-04-06T15:56:47;12.93;;;8.17;;
173;SDS011;75;48.784;9.364;2023-04-06T15:59:33;12.60;;;8.00;;
173;SDS011;75;48.784;9.364;2023-04-06T16:02:18;12.83;;;8.40;;
173;SDS011;75;48.784;9.364;2023-04-06T16:05:02;17.33;;;9.80;;
173;SDS011;75;48.784;9.364;2023-04-06T16:07:47;15.10;;;9.20;;
173;SDS011;75;48.784;9.364;2023-04-06T16:10:31;16.83;;;10.13;;
173;SDS011;75;48.784;9.364;2023-04-06T16:13:16;16.43;;;10.70;;
173;SDS011;75;48.784;9.364;2023-04-06T16:16:00;14.00;;;8.87;;
173;SDS011;75;48.784;9.364;2023-04-06T16:18:46;14.50;;;8.10;;
173;SDS011;75;48.784;9.364;2023-04-06T16:21:31;12.23;;;8.20;;
173;SDS011;75;48.784;9.364;2023-04-06T16:24:15;13.20;;;8.30;;
173;SDS011;75;48.784;9.364;2023-04-06T16:27:00;13.33;;;8.23;;
173;SDS011;75;48.784;9.364;2023-04-06T16:29:44;17.93;;;8.97;;
173;SDS011;75;48.784;9.364;2023-04-06T16:32:29;12.53;;;7.97;;
173;SDS011;75;48.784;9.364;2023-04-06T16:35:13;13.80;;;8.67;;
173;SDS011;75;48.784;9.364;2023-04-06T16:37:59;16.60;;;7.87;;
173;SDS011;75;48.784;9.364;2023-04-06T16:40:44;17.40;;;8.60;;
173;SDS011;75;48.784;9.364;2023-04-06T16:43:29;15.83;;;9.13;;
173;SDS011;75;48.784;9.364;2023-04-06T16:46:14;18.57;;;9.50;;
173;SDS011;75;48.784;9.364;2023-04-06T16:49:00;15.83;;;9.07;;
173;SDS011;75;48.784;9.364;2023-04-06T16:51:45;14.80;;;8.80;;
173;SDS011;75;48.784;9.364;2023-04-06T16:54:32;18.83;;;9.87;;
173;SDS011;75;48.784;9.364;2023-04-06T16:57:17;16.87;;;9.97;;
173;SDS011;75;48.784;9.364;2023-04-06T17:00:03;14.30;;;8.73;;
173;SDS011;75;48.784;9.364;2023-04-06T17:02:48;15.07;;;8.63;;
173;SDS011;75;48.784;9.364;2023-04-06T17:05:33;15.27;;;9.73;;
173;SDS011;75;48.784;9.364;2023-04-06T17:08:18;17.33;;;9.80;;
173;SDS011;75;48.784;9.364;2023-04-06T17:11:03;18.23;;;11.07;;
173;SDS011;75;48.784;9.364;2023-04-06T17:13:48;18.10;;;10.57;;
173;SDS011;75;48.784;9.364;2023-04-06T17:16:33;14.00;;;9.30;;
173;SDS011;75;48.784;9.364;2023-04-06T17:19:18;12.97;;;8.60;;
173;SDS011;75;48.784;9.364;2023-04-06T17:22:03;16.37;;;8.93;;
173;SDS011;75;48.784;9.364;2023-04-06T17:24:47;14.07;;;8.90;;
173;SDS011;75;48.784;9.364;2023-04-06T17:27:32;16.20;;;8.90;;
173;SDS011;75;48.784;9.364;2023-04-06T17:30:16;15.03;;;9.33;;
173;SDS011;75;48.784;9.364;2023-04-06T17:33:01;15.07;;;8.67;;